createdAt,value
2022-08-14T00:01:16.361Z,2.1625
2022-08-14T00:04:34.436Z,1.8499999999999999
2022-08-14T00:07:16.929Z,2
2022-08-14T00:11:15.921Z,1.725
2022-08-14T00:14:17.235Z,2.1125
2022-08-14T00:17:16.340Z,1.9
2022-08-14T00:21:16.800Z,1.8125
2022-08-14T00:24:22.932Z,1.475
2022-08-14T00:27:16.440Z,1.6
2022-08-14T00:31:44.412Z,2.1500000000000004
2022-08-14T00:41:30.724Z,1.6
2022-08-14T00:44:31.816Z,2.3375
2022-08-14T00:47:26.957Z,1.525
2022-08-14T00:51:16.385Z,1.8125
2022-08-14T00:54:21.734Z,1.5
2022-08-14T00:57:18.505Z,1.1
2022-08-14T01:01:18.658Z,1.8375
2022-08-14T01:04:51.737Z,1.8250000000000002
2022-08-14T01:07:21.893Z,1.2875
2022-08-14T01:11:18.975Z,1.6375
2022-08-14T01:14:25.421Z,1.5
2022-08-14T01:17:16.734Z,1.325
2022-08-14T01:21:21.690Z,1.3125
2022-08-14T01:24:28.995Z,1.75
2022-08-14T01:27:19.310Z,1.2375
2022-08-14T01:31:18.628Z,1.7249999999999999
2022-08-14T01:35:17.701Z,1.475
2022-08-14T01:37:16.584Z,1.5875
2022-08-14T01:41:18.833Z,2.2
2022-08-14T01:44:32.854Z,1.65
2022-08-14T01:47:21.765Z,1.8125
2022-08-14T01:51:19.159Z,1.85
2022-08-14T01:54:17.861Z,2.2125
2022-08-14T01:57:15.974Z,1.5875
2022-08-14T02:01:16.911Z,2.1
2022-08-14T02:04:40.939Z,2.125
2022-08-14T02:07:17.355Z,2.1
2022-08-14T02:11:17.043Z,1.2374999999999998
2022-08-14T02:14:31.374Z,1.6625
2022-08-14T02:17:16.452Z,1.775
2022-08-14T02:21:19.285Z,1.9000000000000001
2022-08-14T02:24:40.261Z,1.25
2022-08-14T02:28:25.514Z,1.725
2022-08-14T02:31:15.901Z,1.4875
2022-08-14T02:34:26.135Z,1.6749999999999998
2022-08-14T02:37:16.198Z,1.5250000000000001
2022-08-14T02:41:17.693Z,1.7
2022-08-14T02:44:18.961Z,1.5375
2022-08-14T02:47:20.468Z,1.8375000000000001
2022-08-14T02:51:16.322Z,1.5625
2022-08-14T02:54:19.703Z,1.4874999999999998
2022-08-14T02:57:39.958Z,1.6749999999999998
2022-08-14T03:01:17.792Z,1.2625000000000002
2022-08-14T03:04:17.716Z,1.575
2022-08-14T03:07:17.173Z,1.725
2022-08-14T03:11:16.316Z,1.3875
2022-08-14T03:14:17.981Z,1.45
2022-08-14T03:17:16.437Z,1.675
2022-08-14T03:21:18.159Z,1.7000000000000002
2022-08-14T03:24:23.330Z,1.8125
2022-08-14T03:27:16.423Z,1.825
2022-08-14T03:31:18.216Z,1.3
2022-08-14T03:34:24.985Z,1.3125
2022-08-14T03:37:38.705Z,1.65
2022-08-14T03:41:18.975Z,1.575
2022-08-14T03:45:25.186Z,1.3250000000000002
2022-08-14T03:47:16.566Z,1.9
2022-08-14T03:51:16.757Z,1.7
2022-08-14T03:54:20.528Z,1.3250000000000002
2022-08-14T03:57:16.704Z,1.2625000000000002
2022-08-14T04:01:17.559Z,1.175
2022-08-14T04:04:15.918Z,1.7375
2022-08-14T04:07:16.173Z,1.4
2022-08-14T04:11:17.151Z,1.3125
2022-08-14T04:14:16.649Z,1.625
2022-08-14T04:17:15.969Z,1.475
2022-08-14T04:21:17.163Z,1.6625
2022-08-14T04:24:17.780Z,1.525
2022-08-14T04:27:16.779Z,1.5875
2022-08-14T04:31:17.498Z,1.4625
2022-08-14T04:34:17.130Z,1.475
2022-08-14T04:51:18.039Z,1.8375
2022-08-14T04:54:17.306Z,1.7125
2022-08-14T04:57:16.953Z,1.875
2022-08-14T05:01:19.513Z,1.5375
2022-08-14T05:04:20.808Z,1.5
2022-08-14T05:07:16.910Z,1.4874999999999998
2022-08-14T05:11:16.135Z,1.8875
2022-08-14T05:14:45.744Z,1.375
2022-08-14T05:17:16.039Z,1.675
2022-08-14T05:21:56.833Z,1.7125
2022-08-14T05:24:17.449Z,1.55
2022-08-14T05:27:22.604Z,1.45
2022-08-14T05:31:20.807Z,1.725
2022-08-14T05:34:22.092Z,1.5625
2022-08-14T05:41:52.475Z,1.8375
2022-08-14T05:51:15.706Z,2.125
2022-08-14T05:54:26.604Z,1.725
2022-08-14T06:01:35.859Z,1.8125
2022-08-14T06:04:36.017Z,1.8375
2022-08-14T06:07:36.861Z,1.425
2022-08-14T06:11:23.742Z,1.5125
2022-08-14T06:14:21.459Z,1.6125
2022-08-14T06:17:25.818Z,1.5875
2022-08-14T06:21:17.489Z,2
2022-08-14T06:24:18.647Z,1.825
2022-08-14T06:27:16.594Z,1.7499999999999998
2022-08-14T06:31:16.103Z,1.5625
2022-08-14T06:35:03.241Z,1.9874999999999998
2022-08-14T06:37:18.841Z,1.7000000000000002
2022-08-14T06:41:15.747Z,1.6624999999999999
2022-08-14T06:44:16.201Z,1.575
2022-08-14T06:47:16.280Z,1.8625
2022-08-14T06:51:15.814Z,1.6625
2022-08-14T06:54:16.113Z,1.8125
2022-08-14T06:57:16.225Z,1.625
2022-08-14T07:11:15.776Z,1.6125
2022-08-14T07:14:15.959Z,1.575
2022-08-14T07:17:16.005Z,1.325
2022-08-14T07:21:16.277Z,2.0125
2022-08-14T07:24:21.984Z,1.475
2022-08-14T07:27:16.649Z,1.5625
2022-08-14T07:31:16.574Z,2.05
2022-08-14T07:34:36.495Z,1.9625000000000001
2022-08-14T07:37:16.826Z,1.85
2022-08-14T07:41:16.488Z,1.5125000000000002
2022-08-14T07:44:32.496Z,1.8125
2022-08-14T07:47:16.823Z,1.7
2022-08-14T07:51:17.996Z,1.9625
2022-08-14T07:54:16.695Z,1.6125
2022-08-14T07:57:24.923Z,1.3125
2022-08-14T08:01:17.900Z,1.7
2022-08-14T08:04:24.077Z,1.8125
2022-08-14T08:07:16.933Z,2.05
2022-08-14T08:11:16.286Z,1.9
2022-08-14T08:14:18.160Z,1.575
2022-08-14T08:17:17.182Z,1.5
2022-08-14T08:21:15.830Z,1.6
2022-08-14T08:24:20.121Z,1.9625
2022-08-14T08:27:17.647Z,1.8625
2022-08-14T08:31:16.365Z,2.0875
2022-08-14T08:34:18.124Z,2.1375
2022-08-14T08:37:16.672Z,1.975
2022-08-14T08:41:16.364Z,2.5999999999999996
2022-08-14T08:44:17.368Z,1.7875
2022-08-14T08:47:17.057Z,2.1875
2022-08-14T08:51:22.031Z,2.1
2022-08-14T08:54:18.371Z,1.6375
2022-08-14T08:57:16.437Z,2.2249999999999996
2022-08-14T09:01:27.599Z,1.8375
2022-08-14T09:04:17.901Z,1.65
2022-08-14T09:07:16.603Z,2.6750000000000003
2022-08-14T09:11:19.443Z,2.5625
2022-08-14T09:14:16.238Z,2.175
2022-08-14T09:17:16.221Z,3.0875
2022-08-14T09:21:16.182Z,2.1875
2022-08-14T09:24:29.289Z,2.325
2022-08-14T09:27:22.498Z,2.5625
2022-08-14T09:31:18.316Z,2.5
2022-08-14T09:34:29.156Z,2.3875
2022-08-14T09:37:30.337Z,2.6625
2022-08-14T09:42:19.993Z,2.525
2022-08-14T09:44:38.593Z,2.0125
2022-08-14T09:47:17.338Z,2.3375000000000004
2022-08-14T09:51:21.951Z,2.325
2022-08-14T09:54:22.751Z,1.9749999999999999
2022-08-14T09:57:27.704Z,2.45
2022-08-14T10:01:17.520Z,2.175
2022-08-14T10:11:23.843Z,2.4875
2022-08-14T10:14:29.358Z,1.9
2022-08-14T10:17:21.904Z,2.4625
2022-08-14T10:21:18.412Z,2.3375000000000004
2022-08-14T10:24:24.403Z,2.4749999999999996
2022-08-14T10:27:19.042Z,2.3
2022-08-14T10:31:19.709Z,2.7
2022-08-14T10:34:19.507Z,2.5
2022-08-14T10:37:19.011Z,2.2125
2022-08-14T10:41:16.967Z,2.7624999999999997
2022-08-14T10:44:21.913Z,1.7874999999999999
2022-08-14T10:47:41.686Z,2.5
2022-08-14T10:51:24.475Z,2.1625
2022-08-14T10:54:35.975Z,2.3125
2022-08-14T10:57:19.028Z,2.4749999999999996
2022-08-14T11:01:16.196Z,3.4749999999999996
2022-08-14T11:04:25.918Z,2.4
2022-08-14T11:07:21.230Z,1.7125
2022-08-14T11:11:15.950Z,2.35
2022-08-14T11:14:19.550Z,3.4000000000000004
2022-08-14T11:17:21.589Z,2.375
2022-08-14T11:21:18.235Z,2.25
2022-08-14T11:24:54.679Z,2.2125000000000004
2022-08-14T11:27:19.198Z,2.3125
2022-08-14T11:31:18.620Z,5.262499999999999
2022-08-14T11:34:32.444Z,2.9125
2022-08-14T11:37:23.705Z,2.925
2022-08-14T11:41:17.198Z,2.7125000000000004
2022-08-14T11:44:17.735Z,2.2125
2022-08-14T11:47:19.607Z,2.775
2022-08-14T11:51:24.416Z,1.8624999999999998
2022-08-14T11:54:19.446Z,2.4875
2022-08-14T11:57:18.651Z,1.8125
2022-08-14T12:01:16.025Z,2.2375
2022-08-14T12:04:32.247Z,2.5749999999999997
2022-08-14T12:07:17.147Z,2.5875
2022-08-14T12:11:16.958Z,2.6
2022-08-14T12:14:30.118Z,2.6625
2022-08-14T12:17:16.232Z,2.4125
2022-08-14T12:21:19.445Z,3.4124999999999996
2022-08-14T12:24:36.768Z,2.5250000000000004
2022-08-14T12:27:16.933Z,2.3375
2022-08-14T12:31:20.747Z,3.4
2022-08-14T12:41:21.158Z,2.8125
2022-08-14T12:44:16.736Z,2.1375
2022-08-14T12:47:17.717Z,2.6125
2022-08-14T12:51:19.817Z,2.3125
2022-08-14T13:01:20.520Z,2.4499999999999997
2022-08-14T13:11:19.017Z,2.275
2022-08-14T13:21:18.106Z,1.875
2022-08-14T13:31:23.978Z,3.2125
2022-08-14T13:41:16.325Z,2.5125
2022-08-14T13:51:17.320Z,2.325
2022-08-14T14:01:16.889Z,2.35
2022-08-14T14:11:17.561Z,1.8625
2022-08-14T14:21:17.736Z,2.7125
2022-08-14T14:31:19.344Z,2.7125
2022-08-14T14:41:19.915Z,2.375
2022-08-14T14:51:18.577Z,2.1999999999999997
2022-08-14T15:01:23.426Z,1.925
2022-08-14T15:11:16.207Z,2
2022-08-14T15:21:16.032Z,2.1875
2022-08-14T15:31:16.906Z,1.8
2022-08-14T15:41:16.928Z,2.2750000000000004
2022-08-14T16:01:53.001Z,2.05
2022-08-14T16:41:39.268Z,2.7875
2022-08-14T16:51:18.479Z,2.9000000000000004
2022-08-14T16:54:34.311Z,2.9
2022-08-14T16:57:20.932Z,2.4125
2022-08-14T17:11:15.626Z,3.175
2022-08-14T17:14:17.327Z,3.05
2022-08-14T17:17:17.614Z,2.8125
2022-08-14T17:21:21.642Z,3
2022-08-14T17:24:56.934Z,2.8625
2022-08-14T17:27:20.792Z,2.3875
2022-08-14T17:41:23.956Z,2.3
2022-08-14T17:44:21.832Z,2.8625
2022-08-14T17:47:18.001Z,2.825
2022-08-14T18:21:42.799Z,2.8375000000000004
2022-08-14T18:24:20.050Z,3.0375
2022-08-14T18:27:22.805Z,2.9875
2022-08-14T18:31:43.788Z,3.0625
2022-08-14T18:34:31.587Z,3.2874999999999996
2022-08-14T18:37:19.326Z,2.7875
2022-08-14T18:41:37.551Z,2.95
2022-08-14T18:45:16.046Z,3.1624999999999996
2022-08-14T19:01:23.670Z,3.25
2022-08-14T19:04:35.378Z,3.6625
2022-08-14T19:11:50.343Z,3.9
2022-08-14T19:14:43.944Z,2.975
2022-08-14T19:18:10.893Z,3.1125
2022-08-14T19:21:24.297Z,2.9250000000000003
2022-08-14T19:24:27.797Z,3.3
2022-08-14T20:21:16.324Z,3.7375
2022-08-14T20:24:31.009Z,3.2124999999999995
2022-08-14T20:27:23.412Z,3.15
2022-08-14T20:31:18.228Z,3.1624999999999996
2022-08-14T20:34:24.320Z,6.362500000000001
2022-08-14T20:37:22.355Z,3.6750000000000003
2022-08-14T20:41:19.311Z,3.475
2022-08-14T20:45:24.102Z,3.4625000000000004
2022-08-14T20:47:16.309Z,3.6875
2022-08-14T20:51:20.175Z,3.375
2022-08-14T20:54:21.501Z,3.4375
2022-08-14T20:57:17.976Z,2.9875
2022-08-14T21:01:33.564Z,3.775
2022-08-14T21:04:26.763Z,2.75
2022-08-14T21:07:24.966Z,2.9
2022-08-14T21:11:19.101Z,3.5
2022-08-14T21:14:20.408Z,3.125
2022-08-14T21:17:16.613Z,2.9625
2022-08-14T21:21:21.198Z,3.825
2022-08-14T21:24:39.646Z,3.6999999999999997
2022-08-14T21:27:20.232Z,3.1875
2022-08-14T21:31:23.900Z,4.4875
2022-08-14T21:34:27.263Z,2.95
2022-08-14T21:37:16.624Z,3.25
2022-08-14T21:41:41.539Z,3.7375
2022-08-14T21:44:18.372Z,3.35
2022-08-14T21:47:17.758Z,3.45
2022-08-14T21:51:54.899Z,3.6375
2022-08-14T21:54:32.346Z,2.9375
2022-08-14T21:57:17.719Z,3.2375
2022-08-14T22:01:18.311Z,3.8375
2022-08-14T22:04:32.728Z,3.4625
2022-08-14T22:07:18.111Z,3.25
2022-08-14T22:11:16.394Z,3.4375
2022-08-14T22:14:26.221Z,4.2125
2022-08-14T22:17:17.245Z,3.1500000000000004
2022-08-14T22:21:17.122Z,3.7874999999999996
2022-08-14T22:24:38.215Z,3.0625
2022-08-14T22:27:16.928Z,3.3
2022-08-14T22:31:23.127Z,3.9
2022-08-14T22:34:16.826Z,3.825
2022-08-14T22:37:16.822Z,2.7125000000000004
2022-08-14T22:41:29.317Z,3.075
2022-08-14T22:44:18.630Z,3.225
2022-08-14T22:47:15.830Z,3.4250000000000003
2022-08-14T22:51:19.297Z,3.5250000000000004
2022-08-14T22:54:52.041Z,2.6625
2022-08-14T22:57:16.835Z,3.05
2022-08-14T23:01:22.859Z,3.6999999999999997
2022-08-14T23:04:34.096Z,3.175
2022-08-14T23:07:22.262Z,2.7875
2022-08-14T23:11:16.203Z,3.9875
2022-08-14T23:14:23.896Z,3.3125
2022-08-14T23:17:17.619Z,3.325
2022-08-14T23:21:16.928Z,4.0875
2022-08-14T23:24:18.196Z,3.7749999999999995
2022-08-14T23:27:20.850Z,3.1625
2022-08-14T23:31:34.446Z,3.5875
2022-08-14T23:34:20.693Z,3.15
2022-08-14T23:37:17.181Z,3.05
2022-08-14T23:41:17.293Z,4.225
2022-08-14T23:44:16.382Z,2.7
2022-08-14T23:47:26.607Z,2.8625
2022-08-14T23:51:17.636Z,3.8000000000000003
2022-08-14T23:54:48.408Z,3.3874999999999997
2022-08-14T23:57:19.469Z,3.05
